createdAt,value
2022-11-24T00:02:29.167Z,99234.72
2022-11-24T00:05:30.938Z,99240.91
2022-11-24T00:08:32.569Z,99239.28
2022-11-24T00:11:36.122Z,99243.66
2022-11-24T00:14:37.797Z,99237.78
2022-11-24T00:17:39.469Z,99253.56
2022-11-24T00:20:41.075Z,99252.22
2022-11-24T00:23:45.889Z,99250.31
2022-11-24T00:26:47.525Z,99248.16
2022-11-24T00:29:49.149Z,99257.19
2022-11-24T00:32:52.747Z,99250.50
2022-11-24T00:35:56.261Z,99262.19
2022-11-24T00:39:00.217Z,99255.88
2022-11-24T00:42:02.111Z,99264.50
2022-11-24T00:45:13.205Z,99270.28
2022-11-24T00:48:15.074Z,99271.09
2022-11-24T00:51:18.183Z,99278.31
2022-11-24T00:54:19.835Z,99272.38
2022-11-24T00:57:21.403Z,99268.22
2022-11-24T01:00:23.111Z,99280.75
2022-11-24T01:03:24.716Z,99280.44
2022-11-24T01:06:27.040Z,99282.09
2022-11-24T01:09:28.697Z,99288.69
2022-11-24T01:12:30.301Z,99289.53
2022-11-24T01:15:31.965Z,99291.47
2022-11-24T01:18:33.577Z,99301.78
2022-11-24T01:21:35.200Z,99305.22
2022-11-24T01:24:36.814Z,99307.66
2022-11-24T01:27:38.705Z,99304.16
2022-11-24T01:30:40.356Z,99299.16
2022-11-24T01:33:41.955Z,99303.06
2022-11-24T01:36:43.663Z,99309.19
2022-11-24T01:39:45.274Z,99315.13
2022-11-24T01:42:50.697Z,99317.84
2022-11-24T01:45:52.453Z,99317.47
2022-11-24T01:49:13.178Z,99312.28
2022-11-24T01:52:21.933Z,99319.34
2022-11-24T01:55:31.045Z,99318.81
2022-11-24T01:58:34.622Z,99324.34
2022-11-24T02:01:36.390Z,99323.03
2022-11-24T02:04:38.818Z,99323.69
2022-11-24T02:07:40.628Z,99322.16
2022-11-24T02:10:44.126Z,99333.59
2022-11-24T02:13:47.893Z,99334.75
2022-11-24T02:16:50.999Z,99337.87
2022-11-24T02:19:58.572Z,99338.22
2022-11-24T02:23:15.508Z,99342.56
2022-11-24T02:26:35.844Z,99334.31
2022-11-24T02:29:38.265Z,99338.56
2022-11-24T02:32:42.170Z,99329.69
2022-11-24T02:35:43.796Z,99335.06
2022-11-24T02:38:45.379Z,99340.69
2022-11-24T02:41:52.157Z,99337.87
2022-11-24T02:44:58.491Z,99336.66
2022-11-24T02:48:00.210Z,99339.75
2022-11-24T02:51:01.799Z,99338.03
2022-11-24T02:54:03.455Z,99339.19
2022-11-24T02:57:05.080Z,99343.97
2022-11-24T03:00:07.342Z,99346.78
2022-11-24T03:03:09.180Z,99344.06
2022-11-24T03:06:10.840Z,99340.56
2022-11-24T03:09:12.544Z,99346.84
2022-11-24T03:12:16.644Z,99343.19
2022-11-24T03:15:18.589Z,99348.31
2022-11-24T03:18:20.354Z,99348.62
2022-11-24T03:21:21.973Z,99353.81
2022-11-24T03:24:23.561Z,99356.66
2022-11-24T03:27:25.216Z,99354.91
2022-11-24T03:30:27.044Z,99351.47
2022-11-24T03:33:28.845Z,99349.78
2022-11-24T03:36:30.513Z,99357.06
2022-11-24T03:39:32.155Z,99358.75
2022-11-24T03:42:33.843Z,99354.94
2022-11-24T03:45:45.948Z,99356.06
2022-11-24T03:48:47.858Z,99359.50
2022-11-24T03:51:50.237Z,99368.97
2022-11-24T03:54:52.530Z,99368.28
2022-11-24T03:57:54.128Z,99368.16
2022-11-24T04:00:56.620Z,99374.66
2022-11-24T04:03:58.203Z,99366.34
2022-11-24T04:06:59.811Z,99376.44
2022-11-24T04:10:01.676Z,99382.50
2022-11-24T04:13:04.888Z,99383.78
2022-11-24T04:16:06.827Z,99384.69
2022-11-24T04:19:08.484Z,99391.66
2022-11-24T04:22:10.079Z,99396.59
2022-11-24T04:25:12.153Z,99401.00
2022-11-24T04:28:13.736Z,99405.47
2022-11-24T04:31:15.376Z,99413.31
2022-11-24T04:34:17.049Z,99412.56
2022-11-24T04:37:18.801Z,99423.06
2022-11-24T04:40:20.563Z,99419.72
2022-11-24T04:43:22.254Z,99421.53
2022-11-24T04:46:23.878Z,99430.06
2022-11-24T04:49:25.519Z,99426.56
2022-11-24T04:52:27.232Z,99433.28
2022-11-24T04:55:28.845Z,99432.56
2022-11-24T04:58:30.556Z,99437.84
2022-11-24T05:01:32.841Z,99442.31
2022-11-24T05:04:34.760Z,99440.41
2022-11-24T05:07:36.702Z,99447.00
2022-11-24T05:10:38.539Z,99447.03
2022-11-24T05:13:40.318Z,99443.25
2022-11-24T05:16:41.981Z,99442.34
2022-11-24T05:19:43.596Z,99447.94
2022-11-24T05:22:45.287Z,99459.16
2022-11-24T05:25:47.900Z,99462.44
2022-11-24T05:28:49.731Z,99471.97
2022-11-24T05:31:51.433Z,99467.91
2022-11-24T05:34:54.181Z,99467.13
2022-11-24T05:37:55.737Z,99473.31
2022-11-24T05:41:05.416Z,99476.50
2022-11-24T05:44:07.010Z,99481.06
2022-11-24T05:47:08.632Z,99484.94
2022-11-24T05:50:12.243Z,99487.81
2022-11-24T05:53:14.019Z,99486.56
2022-11-24T05:56:15.628Z,99501.03
2022-11-24T05:59:17.171Z,99508.81
2022-11-24T06:02:19.321Z,99516.69
2022-11-24T06:05:21.087Z,99517.31
2022-11-24T06:08:25.590Z,99522.63
2022-11-24T06:11:31.200Z,99532.81
2022-11-24T06:14:33.492Z,99531.81
2022-11-24T06:17:35.287Z,99536.16
2022-11-24T06:20:36.894Z,99532.34
2022-11-24T06:23:38.871Z,99538.41
2022-11-24T06:26:40.909Z,99544.63
2022-11-24T06:29:42.848Z,99551.22
2022-11-24T06:32:49.304Z,99553.78
2022-11-24T06:35:51.362Z,99553.22
2022-11-24T06:38:53.499Z,99558.37
2022-11-24T06:41:55.156Z,99561.78
2022-11-24T06:44:56.694Z,99565.06
2022-11-24T06:47:58.270Z,99566.72
2022-11-24T06:51:01.366Z,99578.16
2022-11-24T06:54:07.148Z,99574.59
2022-11-24T06:57:08.785Z,99583.22
2022-11-24T07:00:11.198Z,99584.91
2022-11-24T07:03:16.444Z,99589.19
2022-11-24T07:06:19.389Z,99594.38
2022-11-24T07:09:20.943Z,99598.88
2022-11-24T07:12:24.264Z,99598.53
2022-11-24T07:15:26.596Z,99602.31
2022-11-24T07:18:28.158Z,99605.63
2022-11-24T07:21:30.866Z,99603.06
2022-11-24T07:24:32.848Z,99599.34
2022-11-24T07:27:34.603Z,99603.38
2022-11-24T07:30:36.159Z,99608.88
2022-11-24T07:33:37.808Z,99610.56
2022-11-24T07:36:39.439Z,99611.50
2022-11-24T07:39:41.019Z,99613.47
2022-11-24T07:42:42.580Z,99613.63
2022-11-24T07:45:44.252Z,99615.97
2022-11-24T07:48:46.651Z,99620.44
2022-11-24T07:51:48.780Z,99625.13
2022-11-24T07:54:50.337Z,99629.41
2022-11-24T07:57:51.886Z,99626.06
2022-11-24T08:00:53.421Z,99623.16
2022-11-24T08:03:55.113Z,99624.25
2022-11-24T08:06:56.695Z,99627.84
2022-11-24T08:09:58.231Z,99633.28
2022-11-24T08:13:03.463Z,99639.22
2022-11-24T08:16:07.526Z,99646.81
2022-11-24T08:19:10.957Z,99644.34
2022-11-24T08:22:12.577Z,99654.69
2022-11-24T08:25:15.343Z,99654.84
2022-11-24T08:28:16.971Z,99655.06
2022-11-24T08:31:19.139Z,99657.84
2022-11-24T08:34:20.838Z,99663.06
2022-11-24T08:37:22.406Z,99667.28
2022-11-24T08:40:24.050Z,99674.03
2022-11-24T08:43:25.672Z,99675.38
2022-11-24T08:46:27.537Z,99675.25
2022-11-24T08:49:29.560Z,99678.12
2022-11-24T08:52:31.211Z,99678.12
2022-11-24T08:55:32.749Z,99671.34
2022-11-24T08:58:35.291Z,99681.53
2022-11-24T09:01:38.104Z,99677.25
2022-11-24T09:04:39.757Z,99684.25
2022-11-24T09:07:41.806Z,99680.81
2022-11-24T09:10:44.028Z,99681.09
2022-11-24T09:13:46.358Z,99687.22
2022-11-24T09:16:48.034Z,99691.69
2022-11-24T09:19:49.609Z,99692.81
2022-11-24T09:22:51.222Z,99697.19
2022-11-24T09:25:52.798Z,99695.53
2022-11-24T09:28:55.947Z,99697.66
2022-11-24T09:32:02.033Z,99696.06
2022-11-24T09:35:07.391Z,99697.09
2022-11-24T09:38:09.975Z,99691.69
2022-11-24T09:41:17.670Z,99705.44
2022-11-24T09:44:28.399Z,99705.94
2022-11-24T09:47:32.918Z,99707.66
2022-11-24T09:50:37.445Z,99709.47
2022-11-24T09:53:57.570Z,99709.53
2022-11-24T09:57:01.542Z,99706.56
2022-11-24T10:00:17.613Z,99705.56
2022-11-24T10:03:39.670Z,99697.47
2022-11-24T10:07:06.371Z,99695.25
2022-11-24T10:10:29.475Z,99697.88
2022-11-24T10:13:34.035Z,99700.38
2022-11-24T10:16:45.339Z,99699.03
2022-11-24T10:20:09.098Z,99705.56
2022-11-24T10:23:22.760Z,99703.78
2022-11-24T10:26:39.290Z,99705.44
2022-11-24T10:29:42.092Z,99704.78
2022-11-24T10:32:56.504Z,99699.53
2022-11-24T10:36:06.538Z,99700.59
2022-11-24T10:39:41.867Z,99710.25
2022-11-24T10:42:43.581Z,99708.97
2022-11-24T10:45:45.776Z,99709.50
2022-11-24T10:48:51.793Z,99713.59
2022-11-24T10:52:11.777Z,99714.47
2022-11-24T10:55:13.600Z,99707.06
2022-11-24T10:58:16.902Z,99713.66
2022-11-24T11:01:21.741Z,99712.88
2022-11-24T11:04:28.377Z,99704.66
2022-11-24T11:07:30.118Z,99702.56
2022-11-24T11:10:31.863Z,99706.91
2022-11-24T11:13:33.425Z,99705.81
2022-11-24T11:16:42.425Z,99709.84
2022-11-24T11:19:49.479Z,99707.59
2022-11-24T11:22:58.585Z,99704.00
2022-11-24T11:26:20.211Z,99710.38
2022-11-24T11:36:17.200Z,99707.62
2022-11-24T11:39:45.405Z,99710.78
2022-11-24T11:43:03.410Z,99717.63
2022-11-24T11:46:11.972Z,99727.22
2022-11-24T11:49:14.309Z,99726.28
2022-11-24T11:55:54.696Z,99731.97
2022-11-24T11:59:31.948Z,99735.41
2022-11-24T12:03:24.349Z,99736.63
2022-11-24T12:06:57.017Z,99742.41
2022-11-24T12:10:36.190Z,99739.94
2022-11-24T12:14:15.365Z,99740.81
2022-11-24T12:17:29.655Z,99739.41
2022-11-24T12:20:37.078Z,99740.25
2022-11-24T12:23:51.354Z,99739.81
2022-11-24T12:27:04.116Z,99738.59
2022-11-24T12:30:10.432Z,99744.63
2022-11-24T12:33:28.381Z,99743.94
2022-11-24T12:36:47.126Z,99754.41
2022-11-24T12:40:07.163Z,99754.50
2022-11-24T12:43:36.872Z,99758.03
2022-11-24T12:46:46.421Z,99758.41
2022-11-24T12:50:12.741Z,99760.53
2022-11-24T12:53:23.735Z,99760.44
2022-11-24T12:56:38.247Z,99762.03
2022-11-24T13:00:00.858Z,99765.34
2022-11-24T13:03:32.871Z,99759.59
2022-11-24T13:06:50.499Z,99767.38
2022-11-24T13:14:00.122Z,99773.31
2022-11-24T13:20:31.366Z,99772.09
2022-11-24T13:23:32.918Z,99771.06
2022-11-24T13:26:43.267Z,99771.09
2022-11-24T13:29:46.675Z,99780.63
2022-11-24T13:33:21.662Z,99769.38
2022-11-24T13:36:25.874Z,99777.03
2022-11-24T13:39:50.489Z,99776.12
2022-11-24T13:42:56.130Z,99782.84
2022-11-24T13:45:57.883Z,99788.03
2022-11-24T13:49:00.064Z,99784.41
2022-11-24T13:52:39.558Z,99796.28
2022-11-24T13:55:52.384Z,99793.78
2022-11-24T13:58:57.822Z,99802.59
2022-11-24T14:01:59.605Z,99801.47
2022-11-24T14:05:01.261Z,99802.69
2022-11-24T14:08:05.933Z,99812.06
2022-11-24T14:11:16.546Z,99813.78
2022-11-24T14:14:21.781Z,99813.72
2022-11-24T14:17:25.540Z,99818.72
2022-11-24T14:20:28.327Z,99828.94
2022-11-24T14:23:31.432Z,99828.81
2022-11-24T14:26:35.824Z,99831.00
2022-11-24T14:29:37.409Z,99832.69
2022-11-24T14:32:39.836Z,99828.41
2022-11-24T14:35:46.948Z,99830.72
2022-11-24T14:38:48.568Z,99831.94
2022-11-24T14:41:55.579Z,99841.69
2022-11-24T14:45:00.194Z,99839.38
2022-11-24T14:48:01.812Z,99841.87
2022-11-24T14:51:24.954Z,99849.31
2022-11-24T14:54:27.030Z,99845.47
2022-11-24T14:57:31.317Z,99847.81
2022-11-24T15:00:33.400Z,99849.59
2022-11-24T15:03:35.037Z,99852.62
2022-11-24T15:06:36.783Z,99859.81
2022-11-24T15:10:04.103Z,99861.94
2022-11-24T15:13:17.021Z,99860.53
2022-11-24T15:16:21.090Z,99862.03
2022-11-24T15:19:26.867Z,99873.88
2022-11-24T15:22:41.440Z,99871.91
2022-11-24T15:25:43.015Z,99882.19
2022-11-24T15:28:46.666Z,99891.50
2022-11-24T15:31:52.686Z,99900.19
2022-11-24T15:34:54.662Z,99904.47
2022-11-24T15:37:56.345Z,99907.81
2022-11-24T15:41:00.686Z,99917.41
2022-11-24T15:44:02.294Z,99915.66
2022-11-24T15:47:03.966Z,99916.87
2022-11-24T15:50:06.181Z,99926.03
2022-11-24T15:53:31.414Z,99930.88
2022-11-24T15:56:37.734Z,99929.25
2022-11-24T15:59:39.289Z,99939.72
2022-11-24T16:02:40.951Z,99943.25
2022-11-24T16:05:42.597Z,99936.16
2022-11-24T16:08:44.196Z,99938.09
2022-11-24T16:11:45.782Z,99944.00
2022-11-24T16:14:47.382Z,99943.38
2022-11-24T16:17:49.320Z,99946.81
2022-11-24T16:20:50.961Z,99945.03
2022-11-24T16:23:52.658Z,99941.69
2022-11-24T16:26:54.796Z,99950.47
2022-11-24T16:29:56.446Z,99942.97
2022-11-24T16:32:58.034Z,99942.31
2022-11-24T16:35:59.708Z,99943.44
2022-11-24T16:39:01.319Z,99951.38
2022-11-24T16:42:03.971Z,99938.84
2022-11-24T16:45:06.130Z,99949.31
2022-11-24T16:48:08.005Z,99951.47
2022-11-24T16:51:10.362Z,99961.81
2022-11-24T16:54:12.460Z,99959.00
2022-11-24T16:57:15.703Z,99965.06
2022-11-24T17:00:17.883Z,99970.72
2022-11-24T17:03:20.018Z,99973.31
2022-11-24T17:06:22.759Z,99973.91
2022-11-24T17:09:24.846Z,99978.31
2022-11-24T17:12:27.726Z,99983.41
2022-11-24T17:15:36.555Z,99984.50
2022-11-24T17:18:41.272Z,99991.34
2022-11-24T17:21:43.177Z,99997.34
2022-11-24T17:24:45.214Z,99993.94
2022-11-24T17:27:47.245Z,99989.94
2022-11-24T17:30:48.879Z,99989.75
2022-11-24T17:33:52.677Z,99998.88
2022-11-24T17:36:54.629Z,99998.19
2022-11-24T17:40:26.303Z,100000.94
2022-11-24T17:43:18.528Z,99999.31
2022-11-24T17:46:20.645Z,100007.22
2022-11-24T17:49:23.698Z,100008.25
2022-11-24T17:52:25.999Z,100012.78
2022-11-24T17:55:27.852Z,100018.44
2022-11-24T17:58:31.357Z,100013.69
2022-11-24T18:01:34.231Z,100018.69
2022-11-24T18:04:36.262Z,100018.22
2022-11-24T18:07:38.525Z,100026.81
2022-11-24T18:10:40.924Z,100022.03
2022-11-24T18:14:01.150Z,100030.53
2022-11-24T18:17:03.796Z,100041.72
2022-11-24T18:20:06.347Z,100044.81
2022-11-24T18:23:08.260Z,100041.28
2022-11-24T18:26:15.217Z,100043.87
2022-11-24T18:29:17.286Z,100049.63
2022-11-24T18:32:19.268Z,100049.19
2022-11-24T18:35:20.926Z,100042.16
2022-11-24T18:38:22.903Z,100051.66
2022-11-24T18:41:29.876Z,100054.06
2022-11-24T18:44:32.106Z,100058.59
2022-11-24T18:47:34.376Z,100068.84
2022-11-24T18:50:36.449Z,100074.63
2022-11-24T18:53:38.536Z,100071.94
2022-11-24T18:56:40.591Z,100073.63
2022-11-24T18:59:42.684Z,100071.50
2022-11-24T19:02:45.459Z,100069.69
2022-11-24T19:05:47.656Z,100075.34
2022-11-24T19:08:54.333Z,100081.66
2022-11-24T19:11:56.379Z,100080.81
2022-11-24T19:15:00.963Z,100088.88
2022-11-24T19:18:21.666Z,100091.94
2022-11-24T19:21:23.912Z,100091.16
2022-11-24T19:24:26.081Z,100093.78
2022-11-24T19:27:27.820Z,100095.81
2022-11-24T19:30:29.994Z,100102.13
2022-11-24T19:33:33.015Z,100105.94
2022-11-24T19:36:35.189Z,100118.37
2022-11-24T19:39:37.216Z,100127.66
2022-11-24T19:42:43.123Z,100128.53
2022-11-24T19:45:44.936Z,100127.31
2022-11-24T19:48:54.660Z,100133.62
2022-11-24T19:51:56.750Z,100145.41
2022-11-24T19:55:00.283Z,100155.28
2022-11-24T19:58:03.429Z,100156.19
2022-11-24T20:01:11.671Z,100150.56
2022-11-24T20:04:15.558Z,100156.50
2022-11-24T20:07:19.463Z,100165.19
2022-11-24T20:10:21.106Z,100158.78
2022-11-24T20:13:23.018Z,100157.38
2022-11-24T20:16:28.536Z,100168.84
2022-11-24T20:19:31.729Z,100168.53
2022-11-24T20:22:33.713Z,100165.00
2022-11-24T20:25:39.961Z,100163.97
2022-11-24T20:28:42.214Z,100171.66
2022-11-24T20:31:48.724Z,100171.31
2022-11-24T20:34:50.478Z,100177.34
2022-11-24T20:41:14.541Z,100175.66
2022-11-24T20:44:18.437Z,100185.59
2022-11-24T20:47:19.979Z,100185.63
2022-11-24T20:50:21.530Z,100188.41
2022-11-24T20:53:24.314Z,100198.25
2022-11-24T20:56:37.574Z,100205.03
2022-11-24T20:59:39.701Z,100205.72
2022-11-24T21:02:42.754Z,100210.00
2022-11-24T21:05:44.760Z,100223.94
2022-11-24T21:08:46.533Z,100222.41
2022-11-24T21:11:49.073Z,100230.91
2022-11-24T21:14:50.847Z,100236.47
2022-11-24T21:17:52.467Z,100235.31
2022-11-24T21:20:54.178Z,100234.34
2022-11-24T21:23:55.733Z,100233.50
2022-11-24T21:26:57.315Z,100238.09
2022-11-24T21:30:00.261Z,100232.16
2022-11-24T21:33:05.550Z,100241.63
2022-11-24T21:36:07.404Z,100249.81
2022-11-24T21:39:12.191Z,100256.09
2022-11-24T21:42:13.820Z,100251.97
2022-11-24T21:45:15.584Z,100251.09
2022-11-24T21:48:17.114Z,100250.06
2022-11-24T21:51:20.937Z,100258.81
2022-11-24T21:54:22.791Z,100249.44
2022-11-24T21:57:24.384Z,100247.53
2022-11-24T22:00:26.007Z,100249.41
2022-11-24T22:03:27.580Z,100260.06
2022-11-24T22:06:29.163Z,100259.34
2022-11-24T22:09:30.715Z,100257.78
2022-11-24T22:12:32.289Z,100265.13
2022-11-24T22:15:33.846Z,100258.88
2022-11-24T22:18:37.864Z,100266.00
2022-11-24T22:21:39.419Z,100271.84
2022-11-24T22:24:41.288Z,100270.69
2022-11-24T22:27:42.941Z,100262.44
2022-11-24T22:30:44.491Z,100273.31
2022-11-24T22:33:46.437Z,100271.44
2022-11-24T22:36:48.229Z,100277.97
2022-11-24T22:39:49.819Z,100287.34
2022-11-24T22:42:51.380Z,100276.56
2022-11-24T22:45:52.990Z,100285.81
2022-11-24T22:48:57.540Z,100286.88
2022-11-24T22:51:59.172Z,100290.88
2022-11-24T22:55:00.746Z,100288.31
2022-11-24T22:58:02.402Z,100292.56
2022-11-24T23:01:17.837Z,100302.03
2022-11-24T23:04:19.444Z,100298.03
2022-11-24T23:07:21.077Z,100305.28
2022-11-24T23:10:22.811Z,100311.53
2022-11-24T23:13:24.374Z,100319.44
2022-11-24T23:16:26.593Z,100321.56
2022-11-24T23:19:28.315Z,100326.16
2022-11-24T23:22:29.896Z,100315.53
2022-11-24T23:25:33.761Z,100330.94
2022-11-24T23:28:35.444Z,100331.06
2022-11-24T23:31:39.854Z,100325.69
2022-11-24T23:34:41.668Z,100338.53
2022-11-24T23:38:06.524Z,100352.13
2022-11-24T23:41:10.074Z,100360.72
2022-11-24T23:44:11.812Z,100368.59
2022-11-24T23:47:13.373Z,100363.78
2022-11-24T23:50:15.076Z,100368.69
2022-11-24T23:53:16.605Z,100356.59
2022-11-24T23:56:23.698Z,100359.50
2022-11-24T23:59:25.239Z,100360.78
